sensor_id;sensor_type;location;lat;lon;timestamp;temperature;humidity
68801;SHT31;55784;50.734;7.086;2022-07-24T00:00:13;19.03;72.60
68801;SHT31;55784;50.734;7.086;2022-07-24T00:02:38;19.03;72.63
68801;SHT31;55784;50.734;7.086;2022-07-24T00:05:09;19.00;72.74
68801;SHT31;55784;50.734;7.086;2022-07-24T00:07:38;19.00;72.67
68801;SHT31;55784;50.734;7.086;2022-07-24T00:10:09;18.99;72.61
68801;SHT31;55784;50.734;7.086;2022-07-24T00:12:40;18.99;73.00
68801;SHT31;55784;50.734;7.086;2022-07-24T00:15:17;19.04;72.84
68801;SHT31;55784;50.734;7.086;2022-07-24T00:17:45;18.99;72.74
68801;SHT31;55784;50.734;7.086;2022-07-24T00:20:19;18.96;72.86
68801;SHT31;55784;50.734;7.086;2022-07-24T00:22:55;18.95;73.09
68801;SHT31;55784;50.734;7.086;2022-07-24T00:25:29;18.93;73.11
68801;SHT31;55784;50.734;7.086;2022-07-24T00:28:04;18.89;73.24
68801;SHT31;55784;50.734;7.086;2022-07-24T00:30:32;18.80;73.52
68801;SHT31;55784;50.734;7.086;2022-07-24T00:33:03;18.76;73.65
68801;SHT31;55784;50.734;7.086;2022-07-24T00:35:29;18.75;73.49
68801;SHT31;55784;50.734;7.086;2022-07-24T00:37:57;18.73;73.79
68801;SHT31;55784;50.734;7.086;2022-07-24T00:40:26;18.70;74.07
68801;SHT31;55784;50.734;7.086;2022-07-24T00:42:52;18.70;74.15
68801;SHT31;55784;50.734;7.086;2022-07-24T00:45:27;18.68;74.29
68801;SHT31;55784;50.734;7.086;2022-07-24T00:47:56;18.63;74.27
68801;SHT31;55784;50.734;7.086;2022-07-24T00:50:26;18.63;74.32
68801;SHT31;55784;50.734;7.086;2022-07-24T00:52:52;18.59;74.62
68801;SHT31;55784;50.734;7.086;2022-07-24T00:55:18;18.52;74.66
68801;SHT31;55784;50.734;7.086;2022-07-24T00:57:44;18.51;74.51
68801;SHT31;55784;50.734;7.086;2022-07-24T01:00:21;18.48;74.47
68801;SHT31;55784;50.734;7.086;2022-07-24T01:02:48;18.48;74.75
68801;SHT31;55784;50.734;7.086;2022-07-24T01:05:13;18.45;74.72
68801;SHT31;55784;50.734;7.086;2022-07-24T01:07:56;18.41;74.80
68801;SHT31;55784;50.734;7.086;2022-07-24T01:10:54;18.35;74.86
68801;SHT31;55784;50.734;7.086;2022-07-24T01:13:23;18.34;75.05
68801;SHT31;55784;50.734;7.086;2022-07-24T01:15:48;18.35;74.92
68801;SHT31;55784;50.734;7.086;2022-07-24T01:18:17;18.32;74.96
68801;SHT31;55784;50.734;7.086;2022-07-24T01:20:46;18.29;74.99
68801;SHT31;55784;50.734;7.086;2022-07-24T01:23:14;18.26;74.92
68801;SHT31;55784;50.734;7.086;2022-07-24T01:25:40;18.22;74.98
68801;SHT31;55784;50.734;7.086;2022-07-24T01:28:05;18.24;75.17
68801;SHT31;55784;50.734;7.086;2022-07-24T01:30:31;18.24;75.17
68801;SHT31;55784;50.734;7.086;2022-07-24T01:32:56;18.21;75.22
68801;SHT31;55784;50.734;7.086;2022-07-24T01:35:21;18.21;75.33
68801;SHT31;55784;50.734;7.086;2022-07-24T01:37:47;18.19;75.28
68801;SHT31;55784;50.734;7.086;2022-07-24T01:40:12;18.16;75.42
68801;SHT31;55784;50.734;7.086;2022-07-24T01:42:37;18.15;75.40
68801;SHT31;55784;50.734;7.086;2022-07-24T01:45:04;18.12;75.51
68801;SHT31;55784;50.734;7.086;2022-07-24T01:47:30;18.08;75.70
68801;SHT31;55784;50.734;7.086;2022-07-24T01:49:55;18.09;75.65
68801;SHT31;55784;50.734;7.086;2022-07-24T01:52:21;18.08;75.67
68801;SHT31;55784;50.734;7.086;2022-07-24T01:54:50;18.06;75.81
68801;SHT31;55784;50.734;7.086;2022-07-24T01:57:15;17.98;76.02
68801;SHT31;55784;50.734;7.086;2022-07-24T01:59:40;17.95;76.21
68801;SHT31;55784;50.734;7.086;2022-07-24T02:02:06;17.90;76.24
68801;SHT31;55784;50.734;7.086;2022-07-24T02:04:31;17.87;76.30
68801;SHT31;55784;50.734;7.086;2022-07-24T02:06:56;17.84;76.37
68801;SHT31;55784;50.734;7.086;2022-07-24T02:09:22;17.83;76.51
68801;SHT31;55784;50.734;7.086;2022-07-24T02:11:47;17.87;76.60
68801;SHT31;55784;50.734;7.086;2022-07-24T02:14:12;17.85;76.60
68801;SHT31;55784;50.734;7.086;2022-07-24T02:16:38;17.83;76.82
68801;SHT31;55784;50.734;7.086;2022-07-24T02:19:03;17.81;76.86
68801;SHT31;55784;50.734;7.086;2022-07-24T02:21:28;17.75;77.21
68801;SHT31;55784;50.734;7.086;2022-07-24T02:23:54;17.75;77.21
68801;SHT31;55784;50.734;7.086;2022-07-24T02:26:19;17.75;77.27
68801;SHT31;55784;50.734;7.086;2022-07-24T02:28:44;17.74;77.27
68801;SHT31;55784;50.734;7.086;2022-07-24T02:31:10;17.73;77.23
68801;SHT31;55784;50.734;7.086;2022-07-24T02:33:35;17.71;77.48
68801;SHT31;55784;50.734;7.086;2022-07-24T02:36:00;17.69;77.53
68801;SHT31;55784;50.734;7.086;2022-07-24T02:38:25;17.69;77.62
68801;SHT31;55784;50.734;7.086;2022-07-24T02:40:51;17.69;77.74
68801;SHT31;55784;50.734;7.086;2022-07-24T02:43:16;17.66;77.73
68801;SHT31;55784;50.734;7.086;2022-07-24T02:45:42;17.66;77.68
68801;SHT31;55784;50.734;7.086;2022-07-24T02:48:07;17.63;77.85
68801;SHT31;55784;50.734;7.086;2022-07-24T02:50:33;17.60;77.89
68801;SHT31;55784;50.734;7.086;2022-07-24T02:53:00;17.59;77.88
68801;SHT31;55784;50.734;7.086;2022-07-24T02:55:26;17.54;78.07
68801;SHT31;55784;50.734;7.086;2022-07-24T02:57:54;17.50;77.98
68801;SHT31;55784;50.734;7.086;2022-07-24T03:00:19;17.49;78.14
68801;SHT31;55784;50.734;7.086;2022-07-24T03:02:44;17.47;78.05
68801;SHT31;55784;50.734;7.086;2022-07-24T03:05:10;17.49;78.06
68801;SHT31;55784;50.734;7.086;2022-07-24T03:07:36;17.46;78.18
68801;SHT31;55784;50.734;7.086;2022-07-24T03:10:04;17.43;78.19
68801;SHT31;55784;50.734;7.086;2022-07-24T03:12:29;17.39;78.06
68801;SHT31;55784;50.734;7.086;2022-07-24T03:14:54;17.37;78.14
68801;SHT31;55784;50.734;7.086;2022-07-24T03:17:20;17.34;78.23
68801;SHT31;55784;50.734;7.086;2022-07-24T03:19:45;17.36;78.41
68801;SHT31;55784;50.734;7.086;2022-07-24T03:22:10;17.36;78.36
68801;SHT31;55784;50.734;7.086;2022-07-24T03:24:35;17.30;78.37
68801;SHT31;55784;50.734;7.086;2022-07-24T03:27:01;17.32;78.45
68801;SHT31;55784;50.734;7.086;2022-07-24T03:29:26;17.30;78.42
68801;SHT31;55784;50.734;7.086;2022-07-24T03:31:51;17.30;78.47
68801;SHT31;55784;50.734;7.086;2022-07-24T03:34:17;17.32;78.43
68801;SHT31;55784;50.734;7.086;2022-07-24T03:36:42;17.32;78.66
68801;SHT31;55784;50.734;7.086;2022-07-24T03:39:07;17.29;78.60
68801;SHT31;55784;50.734;7.086;2022-07-24T03:41:33;17.27;78.58
68801;SHT31;55784;50.734;7.086;2022-07-24T03:43:58;17.29;78.55
68801;SHT31;55784;50.734;7.086;2022-07-24T03:46:23;17.29;78.41
68801;SHT31;55784;50.734;7.086;2022-07-24T03:48:49;17.26;78.44
68801;SHT31;55784;50.734;7.086;2022-07-24T03:51:14;17.29;78.43
68801;SHT31;55784;50.734;7.086;2022-07-24T03:53:40;17.32;78.32
68801;SHT31;55784;50.734;7.086;2022-07-24T03:56:06;17.36;78.16
68801;SHT31;55784;50.734;7.086;2022-07-24T03:58:32;17.40;77.97
68801;SHT31;55784;50.734;7.086;2022-07-24T04:00:57;17.44;77.95
68801;SHT31;55784;50.734;7.086;2022-07-24T04:03:23;17.46;77.85
68801;SHT31;55784;50.734;7.086;2022-07-24T04:05:48;17.54;77.61
68801;SHT31;55784;50.734;7.086;2022-07-24T04:08:13;17.59;77.37
68801;SHT31;55784;50.734;7.086;2022-07-24T04:10:39;17.66;77.16
68801;SHT31;55784;50.734;7.086;2022-07-24T04:13:04;17.77;76.83
68801;SHT31;55784;50.734;7.086;2022-07-24T04:15:29;17.83;76.51
68801;SHT31;55784;50.734;7.086;2022-07-24T04:17:55;17.90;76.28
68801;SHT31;55784;50.734;7.086;2022-07-24T04:20:20;17.90;76.22
68801;SHT31;55784;50.734;7.086;2022-07-24T04:22:45;18.11;75.61
68801;SHT31;55784;50.734;7.086;2022-07-24T04:25:12;18.42;74.89
68801;SHT31;55784;50.734;7.086;2022-07-24T04:27:37;18.70;73.90
68801;SHT31;55784;50.734;7.086;2022-07-24T04:30:03;18.97;73.14
68801;SHT31;55784;50.734;7.086;2022-07-24T04:32:29;19.06;72.55
68801;SHT31;55784;50.734;7.086;2022-07-24T04:34:54;19.14;72.08
68801;SHT31;55784;50.734;7.086;2022-07-24T04:37:20;19.32;71.82
68801;SHT31;55784;50.734;7.086;2022-07-24T04:39:45;19.61;71.03
68801;SHT31;55784;50.734;7.086;2022-07-24T04:42:10;19.82;69.86
68801;SHT31;55784;50.734;7.086;2022-07-24T04:44:36;19.96;69.42
68801;SHT31;55784;50.734;7.086;2022-07-24T04:47:01;20.11;68.93
68801;SHT31;55784;50.734;7.086;2022-07-24T04:49:26;20.23;68.75
68801;SHT31;55784;50.734;7.086;2022-07-24T04:51:51;20.54;68.08
68801;SHT31;55784;50.734;7.086;2022-07-24T04:54:17;20.96;66.90
68801;SHT31;55784;50.734;7.086;2022-07-24T04:56:42;21.24;65.70
68801;SHT31;55784;50.734;7.086;2022-07-24T04:59:07;21.61;64.77
68801;SHT31;55784;50.734;7.086;2022-07-24T05:01:33;21.93;63.59
68801;SHT31;55784;50.734;7.086;2022-07-24T05:03:58;22.26;62.72
68801;SHT31;55784;50.734;7.086;2022-07-24T05:06:24;22.30;62.12
68801;SHT31;55784;50.734;7.086;2022-07-24T05:08:49;22.13;62.17
68801;SHT31;55784;50.734;7.086;2022-07-24T05:11:15;21.82;62.98
68801;SHT31;55784;50.734;7.086;2022-07-24T05:13:40;21.66;63.57
68801;SHT31;55784;50.734;7.086;2022-07-24T05:16:05;21.88;63.28
68801;SHT31;55784;50.734;7.086;2022-07-24T05:18:31;22.03;62.92
68801;SHT31;55784;50.734;7.086;2022-07-24T05:20:56;22.35;62.22
68801;SHT31;55784;50.734;7.086;2022-07-24T05:23:22;22.63;61.52
68801;SHT31;55784;50.734;7.086;2022-07-24T05:25:47;22.77;60.76
68801;SHT31;55784;50.734;7.086;2022-07-24T05:28:12;22.98;60.22
68801;SHT31;55784;50.734;7.086;2022-07-24T05:30:38;23.35;59.40
68801;SHT31;55784;50.734;7.086;2022-07-24T05:33:03;23.75;58.35
68801;SHT31;55784;50.734;7.086;2022-07-24T05:35:28;23.89;57.48
68801;SHT31;55784;50.734;7.086;2022-07-24T05:37:54;23.99;57.10
68801;SHT31;55784;50.734;7.086;2022-07-24T05:40:19;24.16;56.53
68801;SHT31;55784;50.734;7.086;2022-07-24T05:42:45;24.38;55.93
68801;SHT31;55784;50.734;7.086;2022-07-24T05:45:10;24.64;55.06
68801;SHT31;55784;50.734;7.086;2022-07-24T05:47:39;24.81;54.47
68801;SHT31;55784;50.734;7.086;2022-07-24T05:50:07;24.82;54.35
68801;SHT31;55784;50.734;7.086;2022-07-24T05:52:33;24.84;54.16
68801;SHT31;55784;50.734;7.086;2022-07-24T05:54:58;24.88;54.12
68801;SHT31;55784;50.734;7.086;2022-07-24T05:57:24;24.96;53.87
68801;SHT31;55784;50.734;7.086;2022-07-24T05:59:49;25.22;53.36
68801;SHT31;55784;50.734;7.086;2022-07-24T06:02:14;25.19;53.14
68801;SHT31;55784;50.734;7.086;2022-07-24T06:04:39;25.16;53.15
68801;SHT31;55784;50.734;7.086;2022-07-24T06:07:08;24.98;53.65
68801;SHT31;55784;50.734;7.086;2022-07-24T06:09:34;24.81;54.14
68801;SHT31;55784;50.734;7.086;2022-07-24T06:12:00;24.61;54.65
68801;SHT31;55784;50.734;7.086;2022-07-24T06:14:25;24.57;54.93
68801;SHT31;55784;50.734;7.086;2022-07-24T06:16:50;24.31;55.67
68801;SHT31;55784;50.734;7.086;2022-07-24T06:19:16;24.40;55.47
68801;SHT31;55784;50.734;7.086;2022-07-24T06:21:41;24.53;55.00
68801;SHT31;55784;50.734;7.086;2022-07-24T06:24:06;24.75;54.57
68801;SHT31;55784;50.734;7.086;2022-07-24T06:26:32;24.91;54.13
68801;SHT31;55784;50.734;7.086;2022-07-24T06:28:57;24.91;54.07
68801;SHT31;55784;50.734;7.086;2022-07-24T06:31:22;24.99;53.85
68801;SHT31;55784;50.734;7.086;2022-07-24T06:33:48;25.02;53.61
68801;SHT31;55784;50.734;7.086;2022-07-24T06:36:13;25.07;53.69
68801;SHT31;55784;50.734;7.086;2022-07-24T06:38:38;25.08;53.63
68801;SHT31;55784;50.734;7.086;2022-07-24T06:41:04;25.08;53.63
68801;SHT31;55784;50.734;7.086;2022-07-24T06:43:29;25.04;53.63
68801;SHT31;55784;50.734;7.086;2022-07-24T06:45:54;25.02;53.61
68801;SHT31;55784;50.734;7.086;2022-07-24T06:48:20;25.02;53.69
68801;SHT31;55784;50.734;7.086;2022-07-24T06:50:45;24.94;53.92
68801;SHT31;55784;50.734;7.086;2022-07-24T06:53:11;24.89;54.23
68801;SHT31;55784;50.734;7.086;2022-07-24T06:55:36;24.82;54.05
68801;SHT31;55784;50.734;7.086;2022-07-24T06:58:02;24.72;54.37
68801;SHT31;55784;50.734;7.086;2022-07-24T07:00:27;24.65;54.98
68801;SHT31;55784;50.734;7.086;2022-07-24T07:02:53;24.60;54.95
68801;SHT31;55784;50.734;7.086;2022-07-24T07:05:18;24.61;55.09
68801;SHT31;55784;50.734;7.086;2022-07-24T07:07:44;24.58;54.80
68801;SHT31;55784;50.734;7.086;2022-07-24T07:10:09;24.60;54.99
68801;SHT31;55784;50.734;7.086;2022-07-24T07:12:35;24.53;55.22
68801;SHT31;55784;50.734;7.086;2022-07-24T07:15:00;24.57;55.20
68801;SHT31;55784;50.734;7.086;2022-07-24T07:17:26;24.54;54.92
68801;SHT31;55784;50.734;7.086;2022-07-24T07:19:51;24.54;54.84
68801;SHT31;55784;50.734;7.086;2022-07-24T07:22:16;24.53;55.18
68801;SHT31;55784;50.734;7.086;2022-07-24T07:24:42;24.61;55.10
68801;SHT31;55784;50.734;7.086;2022-07-24T07:27:07;24.68;54.77
68801;SHT31;55784;50.734;7.086;2022-07-24T07:29:33;24.72;54.70
68801;SHT31;55784;50.734;7.086;2022-07-24T07:31:58;24.75;54.44
68801;SHT31;55784;50.734;7.086;2022-07-24T07:34:23;24.79;54.66
68801;SHT31;55784;50.734;7.086;2022-07-24T07:36:49;24.85;54.79
68801;SHT31;55784;50.734;7.086;2022-07-24T07:39:14;24.91;54.59
68801;SHT31;55784;50.734;7.086;2022-07-24T07:41:39;25.01;54.44
68801;SHT31;55784;50.734;7.086;2022-07-24T07:44:05;24.94;54.02
68801;SHT31;55784;50.734;7.086;2022-07-24T07:46:30;24.95;54.14
68801;SHT31;55784;50.734;7.086;2022-07-24T07:48:55;25.04;54.20
68801;SHT31;55784;50.734;7.086;2022-07-24T07:51:21;25.19;56.73
68801;SHT31;55784;50.734;7.086;2022-07-24T07:53:46;25.32;55.51
68801;SHT31;55784;50.734;7.086;2022-07-24T07:56:12;25.43;56.10
68801;SHT31;55784;50.734;7.086;2022-07-24T07:58:38;25.53;56.61
68801;SHT31;55784;50.734;7.086;2022-07-24T08:01:03;25.58;56.39
68801;SHT31;55784;50.734;7.086;2022-07-24T08:03:29;25.69;54.43
68801;SHT31;55784;50.734;7.086;2022-07-24T08:05:54;25.76;53.90
68801;SHT31;55784;50.734;7.086;2022-07-24T08:08:20;25.83;56.65
68801;SHT31;55784;50.734;7.086;2022-07-24T08:10:46;25.87;56.09
68801;SHT31;55784;50.734;7.086;2022-07-24T08:13:11;25.94;55.11
68801;SHT31;55784;50.734;7.086;2022-07-24T08:15:37;25.91;52.97
68801;SHT31;55784;50.734;7.086;2022-07-24T08:18:03;25.96;54.33
68801;SHT31;55784;50.734;7.086;2022-07-24T08:20:29;26.00;55.32
68801;SHT31;55784;50.734;7.086;2022-07-24T08:22:54;26.07;54.94
68801;SHT31;55784;50.734;7.086;2022-07-24T08:25:20;26.10;58.39
68801;SHT31;55784;50.734;7.086;2022-07-24T08:27:46;26.08;54.40
68801;SHT31;55784;50.734;7.086;2022-07-24T08:30:12;25.97;53.18
68801;SHT31;55784;50.734;7.086;2022-07-24T08:32:37;26.14;53.72
68801;SHT31;55784;50.734;7.086;2022-07-24T08:35:06;26.24;52.67
68801;SHT31;55784;50.734;7.086;2022-07-24T08:37:36;26.31;53.16
68801;SHT31;55784;50.734;7.086;2022-07-24T08:40:02;26.41;54.98
68801;SHT31;55784;50.734;7.086;2022-07-24T08:42:28;26.45;55.21
68801;SHT31;55784;50.734;7.086;2022-07-24T08:44:53;26.48;54.84
68801;SHT31;55784;50.734;7.086;2022-07-24T08:47:19;26.52;54.76
68801;SHT31;55784;50.734;7.086;2022-07-24T08:49:46;26.58;55.56
68801;SHT31;55784;50.734;7.086;2022-07-24T08:52:13;26.62;49.96
68801;SHT31;55784;50.734;7.086;2022-07-24T08:54:40;26.59;51.04
68801;SHT31;55784;50.734;7.086;2022-07-24T08:57:06;26.65;51.82
68801;SHT31;55784;50.734;7.086;2022-07-24T08:59:31;26.78;51.62
68801;SHT31;55784;50.734;7.086;2022-07-24T09:01:57;26.88;49.60
68801;SHT31;55784;50.734;7.086;2022-07-24T09:07:11;26.94;51.71
68801;SHT31;55784;50.734;7.086;2022-07-24T09:09:38;26.94;52.52
68801;SHT31;55784;50.734;7.086;2022-07-24T09:14:35;26.94;48.84
68801;SHT31;55784;50.734;7.086;2022-07-24T09:17:02;26.99;50.42
68801;SHT31;55784;50.734;7.086;2022-07-24T09:19:28;27.06;48.87
68801;SHT31;55784;50.734;7.086;2022-07-24T09:21:53;27.07;52.40
68801;SHT31;55784;50.734;7.086;2022-07-24T09:24:20;27.07;50.30
68801;SHT31;55784;50.734;7.086;2022-07-24T09:26:56;27.10;50.93
68801;SHT31;55784;50.734;7.086;2022-07-24T09:29:24;27.15;49.61
68801;SHT31;55784;50.734;7.086;2022-07-24T09:32:00;27.19;49.24
68801;SHT31;55784;50.734;7.086;2022-07-24T09:34:28;27.22;50.41
68801;SHT31;55784;50.734;7.086;2022-07-24T09:36:59;27.29;49.81
68801;SHT31;55784;50.734;7.086;2022-07-24T09:39:26;27.37;48.91
68801;SHT31;55784;50.734;7.086;2022-07-24T09:41:55;27.40;52.43
68801;SHT31;55784;50.734;7.086;2022-07-24T09:44:21;27.46;46.42
68801;SHT31;55784;50.734;7.086;2022-07-24T09:47:01;27.47;51.93
68801;SHT31;55784;50.734;7.086;2022-07-24T09:49:27;27.49;49.65
68801;SHT31;55784;50.734;7.086;2022-07-24T09:52:14;27.47;48.87
68801;SHT31;55784;50.734;7.086;2022-07-24T09:54:46;27.53;50.44
68801;SHT31;55784;50.734;7.086;2022-07-24T09:57:24;27.57;50.34
68801;SHT31;55784;50.734;7.086;2022-07-24T09:59:52;27.67;46.53
68801;SHT31;55784;50.734;7.086;2022-07-24T10:02:20;27.93;45.36
68801;SHT31;55784;50.734;7.086;2022-07-24T10:04:47;28.15;44.92
68801;SHT31;55784;50.734;7.086;2022-07-24T10:07:20;28.32;43.34
68801;SHT31;55784;50.734;7.086;2022-07-24T10:09:48;28.59;43.21
68801;SHT31;55784;50.734;7.086;2022-07-24T10:12:19;28.79;42.23
68801;SHT31;55784;50.734;7.086;2022-07-24T10:14:47;28.96;41.84
68801;SHT31;55784;50.734;7.086;2022-07-24T10:17:15;29.12;42.43
68801;SHT31;55784;50.734;7.086;2022-07-24T10:19:52;28.93;42.49
68801;SHT31;55784;50.734;7.086;2022-07-24T10:22:24;28.84;42.27
68801;SHT31;55784;50.734;7.086;2022-07-24T10:24:57;28.92;41.94
68801;SHT31;55784;50.734;7.086;2022-07-24T10:27:28;29.02;40.78
68801;SHT31;55784;50.734;7.086;2022-07-24T10:29:57;29.17;41.24
68801;SHT31;55784;50.734;7.086;2022-07-24T10:32:24;29.14;40.38
68801;SHT31;55784;50.734;7.086;2022-07-24T10:37:38;29.20;40.51
68801;SHT31;55784;50.734;7.086;2022-07-24T10:53:25;29.42;40.21
68801;SHT31;55784;50.734;7.086;2022-07-24T10:55:51;29.23;40.44
68801;SHT31;55784;50.734;7.086;2022-07-24T10:58:17;29.20;39.54
68801;SHT31;55784;50.734;7.086;2022-07-24T11:00:47;29.20;40.81
68801;SHT31;55784;50.734;7.086;2022-07-24T11:03:29;29.00;39.62
68801;SHT31;55784;50.734;7.086;2022-07-24T11:06:09;28.98;39.81
68801;SHT31;55784;50.734;7.086;2022-07-24T11:08:50;29.04;39.37
68801;SHT31;55784;50.734;7.086;2022-07-24T11:11:18;29.23;40.29
68801;SHT31;55784;50.734;7.086;2022-07-24T11:13:49;29.33;38.72
68801;SHT31;55784;50.734;7.086;2022-07-24T11:29:18;29.68;38.42
68801;SHT31;55784;50.734;7.086;2022-07-24T11:31:48;29.61;37.39
68801;SHT31;55784;50.734;7.086;2022-07-24T11:34:13;29.49;37.13
68801;SHT31;55784;50.734;7.086;2022-07-24T11:36:40;29.50;37.48
68801;SHT31;55784;50.734;7.086;2022-07-24T11:39:07;29.60;38.17
68801;SHT31;55784;50.734;7.086;2022-07-24T11:44:13;29.53;39.41
68801;SHT31;55784;50.734;7.086;2022-07-24T11:46:41;29.70;38.11
68801;SHT31;55784;50.734;7.086;2022-07-24T11:49:10;29.80;37.99
68801;SHT31;55784;50.734;7.086;2022-07-24T11:51:46;30.00;38.74
68801;SHT31;55784;50.734;7.086;2022-07-24T11:54:13;30.05;37.81
68801;SHT31;55784;50.734;7.086;2022-07-24T11:56:39;30.04;37.85
68801;SHT31;55784;50.734;7.086;2022-07-24T11:59:05;30.09;38.10
68801;SHT31;55784;50.734;7.086;2022-07-24T12:01:31;29.95;38.32
68801;SHT31;55784;50.734;7.086;2022-07-24T12:03:58;30.05;37.11
68801;SHT31;55784;50.734;7.086;2022-07-24T12:06:25;30.05;37.10
68801;SHT31;55784;50.734;7.086;2022-07-24T12:08:51;30.12;36.82
68801;SHT31;55784;50.734;7.086;2022-07-24T12:11:23;30.24;36.86
68801;SHT31;55784;50.734;7.086;2022-07-24T12:13:49;30.26;36.20
68801;SHT31;55784;50.734;7.086;2022-07-24T12:16:24;30.29;36.47
68801;SHT31;55784;50.734;7.086;2022-07-24T12:18:50;30.28;38.13
68801;SHT31;55784;50.734;7.086;2022-07-24T12:21:15;30.29;37.11
68801;SHT31;55784;50.734;7.086;2022-07-24T12:23:44;30.29;37.63
68801;SHT31;55784;50.734;7.086;2022-07-24T12:26:10;30.35;36.97
68801;SHT31;55784;50.734;7.086;2022-07-24T12:28:35;30.48;36.76
68801;SHT31;55784;50.734;7.086;2022-07-24T12:31:06;30.59;37.20
68801;SHT31;55784;50.734;7.086;2022-07-24T12:33:33;30.63;36.09
68801;SHT31;55784;50.734;7.086;2022-07-24T12:43:51;30.79;36.76
68801;SHT31;55784;50.734;7.086;2022-07-24T12:46:23;30.84;36.83
68801;SHT31;55784;50.734;7.086;2022-07-24T12:49:18;30.87;36.74
68801;SHT31;55784;50.734;7.086;2022-07-24T12:54:15;30.77;36.28
68801;SHT31;55784;50.734;7.086;2022-07-24T12:56:41;30.70;36.36
68801;SHT31;55784;50.734;7.086;2022-07-24T12:59:06;30.80;36.69
68801;SHT31;55784;50.734;7.086;2022-07-24T13:01:51;30.84;36.20
68801;SHT31;55784;50.734;7.086;2022-07-24T13:04:20;30.93;36.38
68801;SHT31;55784;50.734;7.086;2022-07-24T13:06:50;30.86;35.67
68801;SHT31;55784;50.734;7.086;2022-07-24T13:09:17;30.76;35.07
68801;SHT31;55784;50.734;7.086;2022-07-24T13:11:44;30.76;36.64
68801;SHT31;55784;50.734;7.086;2022-07-24T13:14:11;30.83;36.44
68801;SHT31;55784;50.734;7.086;2022-07-24T13:16:39;30.84;35.85
68801;SHT31;55784;50.734;7.086;2022-07-24T13:19:06;30.77;35.31
68801;SHT31;55784;50.734;7.086;2022-07-24T13:21:32;30.80;35.44
68801;SHT31;55784;50.734;7.086;2022-07-24T13:23:58;30.79;36.00
68801;SHT31;55784;50.734;7.086;2022-07-24T13:26:23;30.94;36.80
68801;SHT31;55784;50.734;7.086;2022-07-24T13:28:50;31.03;35.31
68801;SHT31;55784;50.734;7.086;2022-07-24T13:31:15;31.04;36.95
68801;SHT31;55784;50.734;7.086;2022-07-24T13:33:41;31.04;36.47
68801;SHT31;55784;50.734;7.086;2022-07-24T13:36:07;31.07;34.95
68801;SHT31;55784;50.734;7.086;2022-07-24T13:38:32;31.13;35.53
68801;SHT31;55784;50.734;7.086;2022-07-24T13:40:57;31.11;36.57
68801;SHT31;55784;50.734;7.086;2022-07-24T13:43:23;31.14;35.33
68801;SHT31;55784;50.734;7.086;2022-07-24T13:45:48;31.07;36.21
68801;SHT31;55784;50.734;7.086;2022-07-24T13:48:15;31.16;34.54
68801;SHT31;55784;50.734;7.086;2022-07-24T13:50:41;31.19;36.48
68801;SHT31;55784;50.734;7.086;2022-07-24T13:53:06;31.26;35.18
68801;SHT31;55784;50.734;7.086;2022-07-24T14:03:09;31.45;33.76
68801;SHT31;55784;50.734;7.086;2022-07-24T14:05:43;31.61;34.14
68801;SHT31;55784;50.734;7.086;2022-07-24T14:08:08;31.64;33.97
68801;SHT31;55784;50.734;7.086;2022-07-24T14:10:34;31.45;33.92
68801;SHT31;55784;50.734;7.086;2022-07-24T14:12:59;31.64;33.86
68801;SHT31;55784;50.734;7.086;2022-07-24T14:15:24;31.64;33.61
68801;SHT31;55784;50.734;7.086;2022-07-24T14:17:50;31.75;34.00
68801;SHT31;55784;50.734;7.086;2022-07-24T14:20:15;31.88;33.48
68801;SHT31;55784;50.734;7.086;2022-07-24T14:22:41;31.85;33.26
68801;SHT31;55784;50.734;7.086;2022-07-24T14:25:07;31.93;33.21
68801;SHT31;55784;50.734;7.086;2022-07-24T14:27:34;32.06;33.78
68801;SHT31;55784;50.734;7.086;2022-07-24T14:30:00;32.12;34.64
68801;SHT31;55784;50.734;7.086;2022-07-24T14:32:25;32.11;34.37
68801;SHT31;55784;50.734;7.086;2022-07-24T14:34:51;32.02;34.20
68801;SHT31;55784;50.734;7.086;2022-07-24T14:37:16;32.06;34.90
68801;SHT31;55784;50.734;7.086;2022-07-24T14:39:42;32.06;35.13
68801;SHT31;55784;50.734;7.086;2022-07-24T14:42:07;32.05;35.24
68801;SHT31;55784;50.734;7.086;2022-07-24T14:44:33;32.04;34.33
68801;SHT31;55784;50.734;7.086;2022-07-24T14:46:59;32.02;34.04
68801;SHT31;55784;50.734;7.086;2022-07-24T14:49:26;31.99;34.34
68801;SHT31;55784;50.734;7.086;2022-07-24T14:51:51;32.01;34.56
68801;SHT31;55784;50.734;7.086;2022-07-24T14:54:16;32.06;35.00
68801;SHT31;55784;50.734;7.086;2022-07-24T14:56:42;32.04;34.00
68801;SHT31;55784;50.734;7.086;2022-07-24T14:59:08;32.16;32.96
68801;SHT31;55784;50.734;7.086;2022-07-24T15:01:33;32.25;34.73
68801;SHT31;55784;50.734;7.086;2022-07-24T15:03:59;32.12;32.79
68801;SHT31;55784;50.734;7.086;2022-07-24T15:06:26;32.12;33.45
68801;SHT31;55784;50.734;7.086;2022-07-24T15:08:52;32.08;32.60
68801;SHT31;55784;50.734;7.086;2022-07-24T15:11:18;31.95;32.63
68801;SHT31;55784;50.734;7.086;2022-07-24T15:13:46;32.15;33.04
68801;SHT31;55784;50.734;7.086;2022-07-24T15:16:12;32.16;34.14
68801;SHT31;55784;50.734;7.086;2022-07-24T15:18:37;32.15;34.39
68801;SHT31;55784;50.734;7.086;2022-07-24T15:21:02;31.98;33.28
68801;SHT31;55784;50.734;7.086;2022-07-24T15:23:28;32.01;34.03
68801;SHT31;55784;50.734;7.086;2022-07-24T15:25:53;32.01;33.98
68801;SHT31;55784;50.734;7.086;2022-07-24T15:28:19;32.02;35.35
68801;SHT31;55784;50.734;7.086;2022-07-24T15:30:45;31.99;34.21
68801;SHT31;55784;50.734;7.086;2022-07-24T15:33:10;32.04;34.89
68801;SHT31;55784;50.734;7.086;2022-07-24T15:35:36;32.09;35.58
68801;SHT31;55784;50.734;7.086;2022-07-24T15:38:01;32.05;34.13
68801;SHT31;55784;50.734;7.086;2022-07-24T15:40:27;32.08;33.66
68801;SHT31;55784;50.734;7.086;2022-07-24T15:42:53;32.06;33.74
68801;SHT31;55784;50.734;7.086;2022-07-24T15:45:19;32.06;34.20
68801;SHT31;55784;50.734;7.086;2022-07-24T15:47:45;32.08;33.66
68801;SHT31;55784;50.734;7.086;2022-07-24T15:50:10;32.11;33.91
68801;SHT31;55784;50.734;7.086;2022-07-24T15:52:35;32.16;34.38
68801;SHT31;55784;50.734;7.086;2022-07-24T15:55:01;32.12;34.49
68801;SHT31;55784;50.734;7.086;2022-07-24T15:57:26;32.05;34.84
68801;SHT31;55784;50.734;7.086;2022-07-24T15:59:51;31.99;34.34
68801;SHT31;55784;50.734;7.086;2022-07-24T16:02:17;31.96;34.96
68801;SHT31;55784;50.734;7.086;2022-07-24T16:04:42;31.95;34.35
68801;SHT31;55784;50.734;7.086;2022-07-24T16:07:07;32.02;34.46
68801;SHT31;55784;50.734;7.086;2022-07-24T16:09:33;32.04;34.85
68801;SHT31;55784;50.734;7.086;2022-07-24T16:11:58;31.99;34.96
68801;SHT31;55784;50.734;7.086;2022-07-24T16:14:23;31.93;35.18
68801;SHT31;55784;50.734;7.086;2022-07-24T16:16:49;31.86;34.44
68801;SHT31;55784;50.734;7.086;2022-07-24T16:19:14;31.85;35.02
68801;SHT31;55784;50.734;7.086;2022-07-24T16:21:40;31.77;34.91